Canoga, New York
Current Conditions -  °F | °C
As of 11:53 PM on Thursday 27 Nov 2014 (Local Time) from KPEO Reporting Station
Overcast Overcast  
Wind Chill: 29°   Ceiling: 4700
Heat Index: 29°   Visibility: 10mi
Dew Point: 23°   Wind: 0mph
Humidity: 78%   Direction: NA
Pressure: 30.06"   Gusts: NA
Location:  42.9691°N, 76.7961°W
Report Text: KPEO 280453Z AUTO 00000KT 10SM FEW020 OVC047 M02/M05 A3006 RMK AO2 SLP191 T10171050 400001044
Loading
Personal Weather Stations






























Interactive Weather Map New forecast layout! Learn more

10-Day Weather Forecast

Advertisements
Track Severe Weather on mobile